Time;durP1;ratioP1;P1;durP2;ratioP2;P2;SDS_P1;SDS_P2;PMS_P1;PMS_P2;Temp;Humidity;BMP_temperature;BMP_pressure;BME280_temperature;BME280_humidity;BME280_pressure;Samples;Min_cycle;Max_cycle;Signal;HPM_P1;HPM_P2
2024/01/29 00:02:06;;;;;;;9.18;3.70;;;;;;;;;;5007045;28;20516;-58
2024/01/29 00:04:32;;;;;;;9.15;4.40;;;;;;;;;;5009834;28;20680;-57
2024/01/29 00:07:00;;;;;;;7.45;4.50;;;;;;;;;;5008508;28;20535;-57
2024/01/29 00:09:26;;;;;;;9.80;4.10;;;;;;;;;;5009600;28;20026;-58
2024/01/29 00:11:52;;;;;;;10.07;4.65;;;;;;;;;;5009481;28;20032;-57
2024/01/29 00:14:17;;;;;;;10.23;4.60;;;;;;;;;;5013706;28;20034;-57
2024/01/29 00:16:44;;;;;;;12.55;4.72;;;;;;;;;;5002434;28;20033;-58
2024/01/29 00:19:09;;;;;;;7.72;4.00;;;;;;;;;;5000536;28;20030;-58
2024/01/29 00:21:35;;;;;;;8.50;4.88;;;;;;;;;;5003986;28;20501;-59
2024/01/29 00:24:02;;;;;;;9.70;4.38;;;;;;;;;;5002166;28;20034;-58
2024/01/29 00:26:28;;;;;;;9.57;3.95;;;;;;;;;;5001082;28;20038;-58
2024/01/29 00:28:54;;;;;;;10.25;4.10;;;;;;;;;;5000257;28;20264;-56
2024/01/29 00:31:22;;;;;;;7.93;4.18;;;;;;;;;;5001480;28;20431;-59
2024/01/29 00:33:48;;;;;;;9.98;4.68;;;;;;;;;;5000110;28;20030;-58
2024/01/29 00:36:14;;;;;;;9.50;4.22;;;;;;;;;;5003434;28;20025;-56
2024/01/29 00:38:40;;;;;;;9.85;4.40;;;;;;;;;;5009405;28;20025;-58
2024/01/29 00:41:06;;;;;;;14.15;4.30;;;;;;;;;;5008473;28;20462;-57
2024/01/29 00:43:32;;;;;;;8.88;3.95;;;;;;;;;;5006569;28;20054;-58
2024/01/29 00:45:58;;;;;;;10.02;4.43;;;;;;;;;;5009540;28;20057;-58
2024/01/29 00:48:25;;;;;;;9.38;3.90;;;;;;;;;;5007497;28;20026;-58
2024/01/29 00:50:51;;;;;;;8.57;3.72;;;;;;;;;;5008057;28;20022;-58
2024/01/29 00:53:17;;;;;;;8.50;4.13;;;;;;;;;;5007807;28;20057;-58
2024/01/29 00:55:45;;;;;;;10.00;4.18;;;;;;;;;;5008999;28;20057;-57
2024/01/29 00:58:11;;;;;;;8.15;3.85;;;;;;;;;;5004478;28;21659;-55
2024/01/29 01:00:38;;;;;;;10.13;4.00;;;;;;;;;;4999912;28;20120;-58
2024/01/29 01:03:05;;;;;;;7.30;4.00;;;;;;;;;;5002338;28;20113;-56
2024/01/29 01:05:31;;;;;;;11.32;3.88;;;;;;;;;;4999902;28;20038;-57
2024/01/29 01:07:57;;;;;;;6.55;3.40;;;;;;;;;;5000623;28;20030;-56
2024/01/29 01:10:23;;;;;;;9.68;4.10;;;;;;;;;;5001671;28;20037;-55
2024/01/29 01:12:49;;;;;;;12.43;4.85;;;;;;;;;;5001439;28;20387;-56
2024/01/29 01:15:15;;;;;;;12.20;3.92;;;;;;;;;;5004838;28;20030;-57
2024/01/29 01:17:41;;;;;;;10.65;4.28;;;;;;;;;;5001796;28;20105;-56
2024/01/29 01:20:07;;;;;;;7.00;4.22;;;;;;;;;;5008369;28;20049;-58
2024/01/29 01:22:33;;;;;;;8.55;3.97;;;;;;;;;;5009058;28;20026;-58
2024/01/29 01:24:59;;;;;;;9.93;3.90;;;;;;;;;;5007313;28;20024;-57
2024/01/29 01:27:25;;;;;;;6.68;3.05;;;;;;;;;;5007039;28;20060;-59
2024/01/29 01:29:51;;;;;;;13.15;4.20;;;;;;;;;;5011646;28;20033;-58
2024/01/29 01:32:16;;;;;;;10.35;4.05;;;;;;;;;;5012836;28;20037;-57
2024/01/29 01:34:43;;;;;;;8.85;3.95;;;;;;;;;;5012813;28;20054;-58
2024/01/29 01:37:09;;;;;;;9.25;4.07;;;;;;;;;;5012380;28;20053;-58
2024/01/29 01:39:34;;;;;;;13.68;4.15;;;;;;;;;;5012773;28;20029;-58
2024/01/29 01:42:00;;;;;;;9.48;3.80;;;;;;;;;;5012906;28;20026;-58
2024/01/29 01:44:26;;;;;;;7.68;4.10;;;;;;;;;;5012004;28;20064;-58
2024/01/29 01:46:52;;;;;;;7.88;4.03;;;;;;;;;;5012745;28;20144;-58
2024/01/29 01:49:19;;;;;;;9.18;4.40;;;;;;;;;;5012877;28;20022;-59
2024/01/29 01:51:45;;;;;;;8.82;3.97;;;;;;;;;;5012666;28;20570;-56
2024/01/29 01:54:11;;;;;;;7.35;3.30;;;;;;;;;;5012225;28;20030;-59
2024/01/29 01:56:39;;;;;;;7.80;3.38;;;;;;;;;;5012662;28;20022;-56
2024/01/29 01:59:05;;;;;;;9.73;3.70;;;;;;;;;;5015930;28;20053;-57
2024/01/29 02:01:32;;;;;;;14.63;4.55;;;;;;;;;;5009100;28;20034;-58
2024/01/29 02:03:58;;;;;;;7.00;3.58;;;;;;;;;;5010689;28;20077;-59
2024/01/29 02:06:24;;;;;;;9.70;3.80;;;;;;;;;;5011567;28;20125;-59
2024/01/29 02:08:51;;;;;;;7.40;3.17;;;;;;;;;;5010390;28;20412;-59
2024/01/29 02:11:17;;;;;;;7.47;3.67;;;;;;;;;;5012207;28;20092;-56
2024/01/29 02:13:43;;;;;;;8.73;4.20;;;;;;;;;;5013310;28;20485;-57
2024/01/29 02:16:08;;;;;;;5.28;3.47;;;;;;;;;;5010740;28;20064;-57
2024/01/29 02:18:34;;;;;;;9.30;4.47;;;;;;;;;;5009555;28;20017;-59
2024/01/29 02:21:00;;;;;;;6.25;3.63;;;;;;;;;;5010112;28;20032;-59
2024/01/29 02:23:26;;;;;;;9.20;3.83;;;;;;;;;;5012599;28;20065;-58
2024/01/29 02:25:52;;;;;;;5.80;3.67;;;;;;;;;;5010347;28;20081;-58
2024/01/29 02:28:18;;;;;;;7.05;3.85;;;;;;;;;;5008391;28;20036;-58
2024/01/29 02:30:44;;;;;;;11.65;3.60;;;;;;;;;;5014380;28;20525;-58
2024/01/29 02:33:10;;;;;;;11.05;3.85;;;;;;;;;;5012288;28;20068;-57
2024/01/29 02:35:36;;;;;;;5.72;3.42;;;;;;;;;;5012943;28;20029;-59
2024/01/29 02:38:02;;;;;;;10.80;3.95;;;;;;;;;;5009066;28;20110;-57
2024/01/29 02:40:28;;;;;;;7.28;3.70;;;;;;;;;;5010694;28;20053;-56
2024/01/29 02:42:55;;;;;;;7.72;3.28;;;;;;;;;;5008237;28;20488;-58
2024/01/29 02:45:21;;;;;;;7.03;3.45;;;;;;;;;;5010362;28;20038;-57
2024/01/29 02:47:46;;;;;;;8.55;3.30;;;;;;;;;;5010303;28;20029;-57
2024/01/29 02:50:12;;;;;;;7.90;3.90;;;;;;;;;;5011933;28;20100;-57
2024/01/29 02:52:38;;;;;;;8.68;3.70;;;;;;;;;;5006337;28;20060;-56
2024/01/29 02:55:05;;;;;;;7.47;3.45;;;;;;;;;;5011641;28;20108;-57
2024/01/29 02:57:31;;;;;;;10.30;3.85;;;;;;;;;;5010937;28;20034;-59
2024/01/29 02:59:56;;;;;;;5.05;3.25;;;;;;;;;;5011163;28;20075;-59
2024/01/29 03:02:22;;;;;;;11.40;4.25;;;;;;;;;;5006857;28;20026;-58
2024/01/29 03:04:48;;;;;;;6.30;3.75;;;;;;;;;;5025800;28;20112;-58
2024/01/29 03:07:14;;;;;;;9.80;4.05;;;;;;;;;;5011792;28;20551;-57
2024/01/29 03:09:40;;;;;;;7.47;3.53;;;;;;;;;;5015751;28;20037;-58
2024/01/29 03:12:08;;;;;;;8.90;3.53;;;;;;;;;;5004732;28;20079;-59
2024/01/29 03:14:34;;;;;;;10.20;3.40;;;;;;;;;;5006086;28;20018;-59
2024/01/29 03:17:00;;;;;;;7.45;3.55;;;;;;;;;;5007108;28;20498;-54
2024/01/29 03:19:25;;;;;;;7.72;3.92;;;;;;;;;;5008702;28;20400;-59
2024/01/29 03:21:51;;;;;;;14.90;3.88;;;;;;;;;;5013239;28;20496;-58
2024/01/29 03:24:17;;;;;;;8.57;3.90;;;;;;;;;;5010403;28;20120;-59
2024/01/29 03:26:43;;;;;;;5.72;3.55;;;;;;;;;;5008544;28;20025;-56
2024/01/29 03:29:09;;;;;;;8.02;3.70;;;;;;;;;;5009509;28;20113;-58
2024/01/29 03:31:35;;;;;;;10.30;3.78;;;;;;;;;;5010460;28;20129;-58
2024/01/29 03:34:01;;;;;;;6.97;3.72;;;;;;;;;;5010049;28;20045;-58
2024/01/29 03:36:27;;;;;;;9.05;3.75;;;;;;;;;;5010268;28;20021;-58
2024/01/29 03:38:53;;;;;;;8.50;3.45;;;;;;;;;;5009832;28;20041;-59
2024/01/29 03:41:19;;;;;;;9.90;3.85;;;;;;;;;;5010699;28;20037;-56
2024/01/29 03:43:45;;;;;;;9.90;3.80;;;;;;;;;;5010667;28;20048;-56
2024/01/29 03:46:11;;;;;;;4.57;2.72;;;;;;;;;;5009895;28;20037;-58
2024/01/29 03:48:37;;;;;;;9.88;3.67;;;;;;;;;;5010205;28;20030;-58
2024/01/29 03:51:03;;;;;;;9.45;3.83;;;;;;;;;;5009844;28;20022;-58
2024/01/29 03:53:29;;;;;;;10.50;4.13;;;;;;;;;;5009722;28;20116;-57
2024/01/29 03:55:55;;;;;;;9.50;4.60;;;;;;;;;;5010167;28;20117;-56
2024/01/29 03:58:21;;;;;;;10.75;4.50;;;;;;;;;;5010977;28;20030;-57
2024/01/29 04:00:47;;;;;;;8.38;3.85;;;;;;;;;;5012304;28;20026;-59
2024/01/29 04:03:13;;;;;;;11.30;4.10;;;;;;;;;;5012490;28;20461;-57
2024/01/29 04:05:39;;;;;;;14.90;4.60;;;;;;;;;;5009790;28;20037;-58
2024/01/29 04:08:05;;;;;;;7.38;3.75;;;;;;;;;;5010873;28;20049;-57
2024/01/29 04:10:31;;;;;;;8.02;3.60;;;;;;;;;;5009167;28;20045;-56
2024/01/29 04:12:57;;;;;;;6.53;3.50;;;;;;;;;;5009641;28;20038;-57
2024/01/29 04:15:23;;;;;;;9.20;4.32;;;;;;;;;;5008311;28;20060;-59
2024/01/29 04:17:49;;;;;;;13.50;4.32;;;;;;;;;;5010379;28;20022;-57
2024/01/29 04:20:14;;;;;;;10.23;4.03;;;;;;;;;;5009643;28;20049;-59
2024/01/29 04:22:40;;;;;;;11.65;4.47;;;;;;;;;;5010726;28;20022;-59
2024/01/29 04:25:06;;;;;;;12.13;4.68;;;;;;;;;;5007874;28;20030;-58
2024/01/29 04:27:33;;;;;;;10.82;4.32;;;;;;;;;;5012990;28;20030;-58
2024/01/29 04:30:01;;;;;;;6.35;3.22;;;;;;;;;;5005489;28;20035;-57
2024/01/29 04:32:27;;;;;;;7.97;3.78;;;;;;;;;;4999984;28;20030;-56
2024/01/29 04:34:53;;;;;;;9.23;4.82;;;;;;;;;;5001213;28;20064;-55
2024/01/29 04:37:19;;;;;;;9.77;4.95;;;;;;;;;;5000576;28;20022;-53
2024/01/29 04:39:45;;;;;;;11.60;4.22;;;;;;;;;;5001784;28;20383;-56
2024/01/29 04:42:11;;;;;;;9.25;4.68;;;;;;;;;;5001395;28;20037;-57
2024/01/29 04:44:37;;;;;;;10.90;4.13;;;;;;;;;;5001827;28;20036;-58
2024/01/29 04:47:03;;;;;;;11.15;4.32;;;;;;;;;;5003823;28;20041;-58
2024/01/29 04:49:28;;;;;;;8.52;3.95;;;;;;;;;;5000025;28;20069;-58
2024/01/29 04:51:54;;;;;;;8.63;4.20;;;;;;;;;;5001716;28;20072;-57
2024/01/29 04:54:20;;;;;;;9.32;4.50;;;;;;;;;;5006141;28;20049;-58
2024/01/29 04:56:46;;;;;;;7.70;4.25;;;;;;;;;;5010097;28;20109;-58
2024/01/29 04:59:12;;;;;;;9.90;4.18;;;;;;;;;;5004548;28;20117;-56
2024/01/29 05:01:38;;;;;;;15.27;4.20;;;;;;;;;;5006897;28;20083;-57
2024/01/29 05:04:04;;;;;;;6.00;3.83;;;;;;;;;;5018994;28;20041;-57
2024/01/29 05:06:30;;;;;;;6.60;3.60;;;;;;;;;;5016191;28;20147;-56
2024/01/29 05:08:56;;;;;;;9.00;4.22;;;;;;;;;;5016189;28;21242;-58
2024/01/29 05:11:23;;;;;;;8.27;4.78;;;;;;;;;;5012911;28;20500;-55
2024/01/29 05:13:49;;;;;;;7.75;4.15;;;;;;;;;;5012128;28;20116;-57
2024/01/29 05:16:15;;;;;;;10.52;4.60;;;;;;;;;;5009422;28;20109;-58
2024/01/29 05:18:41;;;;;;;13.38;3.92;;;;;;;;;;5011772;28;20041;-53
2024/01/29 05:21:07;;;;;;;9.95;4.05;;;;;;;;;;5011298;28;20034;-55
2024/01/29 05:23:33;;;;;;;11.32;4.20;;;;;;;;;;5012830;28;20396;-58
2024/01/29 05:26:00;;;;;;;9.38;4.70;;;;;;;;;;5007462;28;20115;-54
2024/01/29 05:28:25;;;;;;;8.90;4.47;;;;;;;;;;5011830;28;20026;-56
2024/01/29 05:30:52;;;;;;;9.23;3.58;;;;;;;;;;5012581;28;20435;-59
2024/01/29 05:33:18;;;;;;;10.52;4.63;;;;;;;;;;5013178;28;20040;-57
2024/01/29 05:35:44;;;;;;;9.38;4.82;;;;;;;;;;5013503;28;20030;-58
2024/01/29 05:38:10;;;;;;;12.40;4.78;;;;;;;;;;5006961;28;20045;-58
2024/01/29 05:40:37;;;;;;;7.70;4.75;;;;;;;;;;5017773;28;20423;-59
2024/01/29 05:43:03;;;;;;;9.95;4.30;;;;;;;;;;5012484;28;20453;-57
2024/01/29 05:45:28;;;;;;;6.80;4.22;;;;;;;;;;5012811;28;20427;-58
2024/01/29 05:47:54;;;;;;;9.48;4.15;;;;;;;;;;5012584;28;20041;-57
2024/01/29 05:50:21;;;;;;;8.02;4.75;;;;;;;;;;5011997;28;20103;-57
2024/01/29 05:52:47;;;;;;;9.02;4.22;;;;;;;;;;5015785;28;20038;-56
2024/01/29 05:55:12;;;;;;;10.95;4.28;;;;;;;;;;5012209;28;20485;-55
2024/01/29 05:57:38;;;;;;;9.25;4.32;;;;;;;;;;5007860;28;20036;-58
2024/01/29 06:00:12;;;;;;;11.13;4.88;;;;;;;;;;5005630;28;20030;-59
2024/01/29 06:02:46;;;;;;;7.07;4.40;;;;;;;;;;5003573;28;20030;-58
2024/01/29 06:05:12;;;;;;;7.97;4.25;;;;;;;;;;5004538;28;20080;-58
2024/01/29 06:07:39;;;;;;;12.07;5.18;;;;;;;;;;5003558;28;20481;-58
2024/01/29 06:10:05;;;;;;;8.60;4.38;;;;;;;;;;5001015;28;20109;-58
2024/01/29 06:12:31;;;;;;;9.57;4.70;;;;;;;;;;5003965;28;20496;-53
2024/01/29 06:14:57;;;;;;;8.25;4.32;;;;;;;;;;5010603;28;20022;-56
2024/01/29 06:17:23;;;;;;;9.05;4.90;;;;;;;;;;5002098;28;20109;-56
2024/01/29 06:19:49;;;;;;;7.65;4.25;;;;;;;;;;5008229;28;20109;-58
2024/01/29 06:22:16;;;;;;;10.20;4.75;;;;;;;;;;5003567;28;20117;-59
2024/01/29 06:24:42;;;;;;;13.68;4.40;;;;;;;;;;5004008;28;20034;-56
2024/01/29 06:27:08;;;;;;;9.63;4.88;;;;;;;;;;5012197;28;20025;-57
2024/01/29 06:29:34;;;;;;;10.75;5.30;;;;;;;;;;5009981;28;20109;-56
2024/01/29 06:32:01;;;;;;;11.15;4.97;;;;;;;;;;5017068;28;20034;-57
2024/01/29 06:34:27;;;;;;;9.52;4.80;;;;;;;;;;5012781;28;20022;-57
2024/01/29 06:36:54;;;;;;;9.52;5.07;;;;;;;;;;5016666;28;20442;-58
2024/01/29 06:39:20;;;;;;;10.15;4.63;;;;;;;;;;5012685;28;20480;-59
2024/01/29 06:41:46;;;;;;;10.45;4.85;;;;;;;;;;5011629;28;20396;-58
2024/01/29 06:44:12;;;;;;;18.05;5.57;;;;;;;;;;5012021;28;20040;-56
2024/01/29 06:46:38;;;;;;;10.70;4.95;;;;;;;;;;5010435;28;20030;-56
2024/01/29 06:49:04;;;;;;;10.27;5.50;;;;;;;;;;5010182;28;20026;-56
2024/01/29 06:51:30;;;;;;;14.82;5.90;;;;;;;;;;5012530;28;20045;-56
2024/01/29 06:53:58;;;;;;;9.80;5.00;;;;;;;;;;5013607;28;20064;-58
2024/01/29 06:56:24;;;;;;;14.05;5.03;;;;;;;;;;5010870;28;20022;-54
2024/01/29 06:58:50;;;;;;;9.25;5.55;;;;;;;;;;5011374;28;20399;-58
2024/01/29 07:01:20;;;;;;;12.65;4.88;;;;;;;;;;5004784;28;20504;-57
2024/01/29 07:03:46;;;;;;;13.52;5.13;;;;;;;;;;5000779;28;20132;-55
2024/01/29 07:06:12;;;;;;;12.15;5.30;;;;;;;;;;5004581;28;20037;-56
2024/01/29 07:08:38;;;;;;;11.32;6.25;;;;;;;;;;5001419;28;20033;-57
2024/01/29 07:11:04;;;;;;;11.40;5.50;;;;;;;;;;5002457;28;20041;-56
2024/01/29 07:13:31;;;;;;;10.38;5.32;;;;;;;;;;5000508;28;20025;-58
2024/01/29 07:15:58;;;;;;;10.32;4.80;;;;;;;;;;5002723;28;20484;-56
2024/01/29 07:18:24;;;;;;;11.93;4.97;;;;;;;;;;5001526;28;20080;-55
2024/01/29 07:20:50;;;;;;;9.00;4.82;;;;;;;;;;5003772;28;20449;-57
2024/01/29 07:23:16;;;;;;;11.02;5.13;;;;;;;;;;5000593;28;20029;-58
2024/01/29 07:25:42;;;;;;;9.63;5.43;;;;;;;;;;5001633;28;20068;-60
2024/01/29 07:28:08;;;;;;;14.02;5.70;;;;;;;;;;5000939;28;20075;-58
2024/01/29 07:30:34;;;;;;;12.82;6.07;;;;;;;;;;5007381;28;20101;-57
2024/01/29 07:33:01;;;;;;;10.50;5.88;;;;;;;;;;5010303;28;20113;-59
2024/01/29 07:35:27;;;;;;;9.20;5.45;;;;;;;;;;5010807;28;20033;-59
2024/01/29 07:37:53;;;;;;;13.13;7.10;;;;;;;;;;5006534;28;20014;-58
2024/01/29 07:40:22;;;;;;;9.80;4.88;;;;;;;;;;5011064;28;20025;-58
2024/01/29 07:42:48;;;;;;;7.93;4.97;;;;;;;;;;5009876;28;20026;-57
2024/01/29 07:45:15;;;;;;;10.65;5.53;;;;;;;;;;5008843;28;20480;-56
2024/01/29 07:47:41;;;;;;;11.02;6.22;;;;;;;;;;5007381;28;20034;-55
2024/01/29 07:50:07;;;;;;;10.45;5.43;;;;;;;;;;5008437;28;20034;-57
2024/01/29 07:52:33;;;;;;;9.55;5.53;;;;;;;;;;5010533;28;20034;-56
2024/01/29 07:54:59;;;;;;;10.57;6.18;;;;;;;;;;5009688;28;20392;-56
2024/01/29 07:57:25;;;;;;;11.50;6.10;;;;;;;;;;5005753;28;20521;-55
2024/01/29 07:59:51;;;;;;;13.88;6.07;;;;;;;;;;5005686;28;20037;-57
2024/01/29 08:02:17;;;;;;;12.65;5.93;;;;;;;;;;5003845;28;20021;-57
2024/01/29 08:04:43;;;;;;;22.98;5.65;;;;;;;;;;5005402;28;20436;-56
2024/01/29 08:07:09;;;;;;;17.45;6.60;;;;;;;;;;5007410;28;20603;-59
2024/01/29 08:09:36;;;;;;;19.33;5.90;;;;;;;;;;5003904;28;20492;-55
2024/01/29 08:12:01;;;;;;;14.18;6.63;;;;;;;;;;5007922;28;20026;-57
2024/01/29 08:14:27;;;;;;;14.80;6.35;;;;;;;;;;5003607;28;20034;-58
2024/01/29 08:16:53;;;;;;;14.70;5.72;;;;;;;;;;5003291;28;20104;-57
2024/01/29 08:19:19;;;;;;;13.40;6.13;;;;;;;;;;5006087;28;20057;-59
2024/01/29 08:21:45;;;;;;;11.15;6.22;;;;;;;;;;5006495;28;20443;-57
2024/01/29 08:24:11;;;;;;;9.55;5.55;;;;;;;;;;5004591;28;20437;-58
2024/01/29 08:26:37;;;;;;;13.85;7.15;;;;;;;;;;5004579;28;20447;-60
2024/01/29 08:29:03;;;;;;;13.90;6.40;;;;;;;;;;5004224;28;20022;-59
2024/01/29 08:31:30;;;;;;;11.88;6.25;;;;;;;;;;4997744;28;20026;-59
2024/01/29 08:33:56;;;;;;;13.77;6.32;;;;;;;;;;5000336;28;20101;-55
2024/01/29 08:36:23;;;;;;;11.60;5.85;;;;;;;;;;4998482;28;20030;-57
2024/01/29 08:38:49;;;;;;;14.20;7.18;;;;;;;;;;5003085;28;20101;-57
2024/01/29 08:41:15;;;;;;;14.85;6.63;;;;;;;;;;5003874;28;20034;-58
2024/01/29 08:43:41;;;;;;;10.13;5.82;;;;;;;;;;5002788;28;20385;-57
2024/01/29 08:46:09;;;;;;;11.68;6.60;;;;;;;;;;5010594;28;20030;-57
2024/01/29 08:48:35;;;;;;;12.73;7.57;;;;;;;;;;5008691;28;20065;-60
2024/01/29 08:51:01;;;;;;;12.50;6.57;;;;;;;;;;5007017;28;20053;-59
2024/01/29 08:53:27;;;;;;;13.75;6.85;;;;;;;;;;5006920;28;20034;-57
2024/01/29 08:55:53;;;;;;;13.48;7.15;;;;;;;;;;5009036;28;20029;-59
2024/01/29 08:58:19;;;;;;;12.18;6.32;;;;;;;;;;5008182;28;20060;-59
2024/01/29 09:00:45;;;;;;;10.05;6.63;;;;;;;;;;5002787;28;20037;-55
2024/01/29 09:03:11;;;;;;;15.50;6.40;;;;;;;;;;5004295;28;20030;-57
2024/01/29 09:05:42;;;;;;;15.75;6.38;;;;;;;;;;5005530;28;20107;-57
2024/01/29 09:08:08;;;;;;;17.50;6.95;;;;;;;;;;5006012;28;20139;-57
2024/01/29 09:10:33;;;;;;;14.90;6.13;;;;;;;;;;5000891;28;20153;-56
2024/01/29 09:12:59;;;;;;;16.30;6.60;;;;;;;;;;5001949;28;22062;-55
2024/01/29 09:15:25;;;;;;;14.57;6.63;;;;;;;;;;5004882;28;20026;-57
2024/01/29 09:17:51;;;;;;;13.02;7.07;;;;;;;;;;5004706;28;20030;-58
2024/01/29 09:20:17;;;;;;;14.35;6.55;;;;;;;;;;5003646;28;20034;-55
2024/01/29 09:22:43;;;;;;;11.75;6.15;;;;;;;;;;5004305;28;20038;-57
2024/01/29 09:25:09;;;;;;;10.95;5.95;;;;;;;;;;5006841;28;20045;-57
2024/01/29 09:27:35;;;;;;;13.45;6.40;;;;;;;;;;5006543;28;20029;-57
2024/01/29 09:30:02;;;;;;;9.70;5.45;;;;;;;;;;5006142;28;20022;-57
2024/01/29 09:32:28;;;;;;;14.40;7.13;;;;;;;;;;5005301;28;20565;-57
2024/01/29 09:34:54;;;;;;;15.35;6.90;;;;;;;;;;5005032;28;20053;-56
2024/01/29 09:37:20;;;;;;;13.60;7.03;;;;;;;;;;5005202;28;20029;-59
2024/01/29 09:39:47;;;;;;;13.32;7.10;;;;;;;;;;5004599;28;20025;-58
2024/01/29 09:42:24;;;;;;;13.48;6.30;;;;;;;;;;5005816;28;20030;-58
2024/01/29 09:44:53;;;;;;;20.08;6.88;;;;;;;;;;5004950;28;20131;-55
2024/01/29 09:47:19;;;;;;;11.32;6.95;;;;;;;;;;5005933;28;20396;-59
2024/01/29 09:49:45;;;;;;;14.48;7.55;;;;;;;;;;5002739;28;20029;-55
2024/01/29 09:52:12;;;;;;;15.70;7.70;;;;;;;;;;5008384;28;20443;-57
2024/01/29 09:54:39;;;;;;;13.90;6.38;;;;;;;;;;5006289;28;20377;-54
2024/01/29 09:57:05;;;;;;;15.32;7.50;;;;;;;;;;5007206;28;20034;-57
2024/01/29 09:59:31;;;;;;;12.38;6.78;;;;;;;;;;5008469;28;20504;-60
2024/01/29 10:02:00;;;;;;;12.13;6.95;;;;;;;;;;5007215;28;20033;-57
2024/01/29 10:04:26;;;;;;;15.05;7.45;;;;;;;;;;5009461;28;20034;-57
2024/01/29 10:06:52;;;;;;;16.85;7.45;;;;;;;;;;5007377;28;20033;-60
2024/01/29 10:09:18;;;;;;;15.25;7.57;;;;;;;;;;5017183;28;20033;-57
2024/01/29 10:11:44;;;;;;;15.40;6.72;;;;;;;;;;5014505;28;20519;-57
2024/01/29 10:14:10;;;;;;;13.52;6.97;;;;;;;;;;5011076;28;20115;-54
2024/01/29 10:16:36;;;;;;;13.90;7.10;;;;;;;;;;5010365;28;20030;-55
2024/01/29 10:19:03;;;;;;;19.25;7.35;;;;;;;;;;5009879;28;20196;-54
2024/01/29 10:21:32;;;;;;;16.85;7.57;;;;;;;;;;5009198;28;20037;-57
2024/01/29 10:23:58;;;;;;;16.48;7.57;;;;;;;;;;5011525;28;20030;-56
2024/01/29 10:26:24;;;;;;;15.90;8.02;;;;;;;;;;5011992;28;20403;-56
2024/01/29 10:29:01;;;;;;;17.80;7.93;;;;;;;;;;5012080;28;20033;-53
2024/01/29 10:31:27;;;;;;;20.33;7.30;;;;;;;;;;5014656;28;20022;-56
2024/01/29 10:33:54;;;;;;;12.70;6.63;;;;;;;;;;5011520;28;20040;-56
2024/01/29 10:36:21;;;;;;;10.30;6.68;;;;;;;;;;5010213;28;20026;-54
2024/01/29 10:38:47;;;;;;;15.57;8.32;;;;;;;;;;5009768;28;20029;-57
2024/01/29 10:41:17;;;;;;;14.70;7.38;;;;;;;;;;5010174;28;20048;-53
2024/01/29 10:43:46;;;;;;;13.60;6.72;;;;;;;;;;5009590;28;20473;-56
2024/01/29 10:46:13;;;;;;;15.75;7.13;;;;;;;;;;5007756;28;20147;-55
2024/01/29 10:48:39;;;;;;;13.68;7.07;;;;;;;;;;5011882;28;20403;-60
2024/01/29 10:51:06;;;;;;;19.60;8.70;;;;;;;;;;5007853;28;20093;-54
2024/01/29 10:53:33;;;;;;;11.55;6.97;;;;;;;;;;5014908;28;20037;-56
2024/01/29 10:55:59;;;;;;;16.20;8.38;;;;;;;;;;5005982;28;20038;-58
2024/01/29 10:58:25;;;;;;;15.63;7.82;;;;;;;;;;5012428;28;20044;-58
2024/01/29 11:00:52;;;;;;;14.38;6.75;;;;;;;;;;5006153;28;20083;-55
2024/01/29 11:03:21;;;;;;;13.57;6.90;;;;;;;;;;5009768;28;20026;-53
2024/01/29 11:05:51;;;;;;;18.23;6.22;;;;;;;;;;5005613;28;20308;-58
2024/01/29 11:08:20;;;;;;;11.00;7.00;;;;;;;;;;5008232;28;20088;-57
2024/01/29 11:10:46;;;;;;;11.35;7.65;;;;;;;;;;5008895;28;20388;-55
2024/01/29 11:13:13;;;;;;;14.95;7.50;;;;;;;;;;5007247;28;20041;-58
2024/01/29 11:15:41;;;;;;;10.75;6.85;;;;;;;;;;5008859;28;20022;-60
2024/01/29 11:18:07;;;;;;;15.63;6.75;;;;;;;;;;5007892;28;20132;-55
2024/01/29 11:20:34;;;;;;;11.75;6.55;;;;;;;;;;5009481;28;20103;-54
2024/01/29 11:23:02;;;;;;;15.60;7.93;;;;;;;;;;5006613;28;20034;-56
2024/01/29 11:25:28;;;;;;;17.20;6.95;;;;;;;;;;5006015;28;20033;-54
2024/01/29 11:27:56;;;;;;;13.18;6.93;;;;;;;;;;5018243;28;20026;-55
2024/01/29 11:30:23;;;;;;;17.15;7.47;;;;;;;;;;5004924;28;20376;-54
2024/01/29 11:32:50;;;;;;;16.58;7.78;;;;;;;;;;5008742;28;20037;-55
2024/01/29 11:35:27;;;;;;;18.98;7.35;;;;;;;;;;5010223;28;20431;-55
2024/01/29 11:37:55;;;;;;;13.13;7.68;;;;;;;;;;5006346;28;20033;-55
2024/01/29 11:40:31;;;;;;;13.60;6.40;;;;;;;;;;5007912;28;20056;-59
2024/01/29 11:42:57;;;;;;;19.88;8.10;;;;;;;;;;5005239;28;20038;-59
2024/01/29 11:45:24;;;;;;;12.48;7.20;;;;;;;;;;5009777;28;20404;-59
2024/01/29 11:47:50;;;;;;;17.40;7.05;;;;;;;;;;5005296;28;20030;-53
2024/01/29 11:50:16;;;;;;;13.90;6.88;;;;;;;;;;5009560;28;20033;-57
2024/01/29 11:52:42;;;;;;;13.43;6.55;;;;;;;;;;5006248;28;20025;-55
2024/01/29 11:55:09;;;;;;;17.73;6.50;;;;;;;;;;5009603;28;20022;-56
2024/01/29 11:57:35;;;;;;;11.23;6.90;;;;;;;;;;5008000;28;20033;-55
2024/01/29 12:00:02;;;;;;;13.45;7.10;;;;;;;;;;5002887;28;20038;-54
2024/01/29 12:02:30;;;;;;;11.45;6.82;;;;;;;;;;5004450;28;20189;-58
2024/01/29 12:04:56;;;;;;;12.05;6.63;;;;;;;;;;5008022;28;20065;-55
2024/01/29 12:07:22;;;;;;;13.38;6.43;;;;;;;;;;5008954;28;20045;-57
2024/01/29 12:09:48;;;;;;;10.85;6.70;;;;;;;;;;5008541;28;20034;-54
2024/01/29 12:12:15;;;;;;;14.55;6.75;;;;;;;;;;5007760;28;20029;-57
2024/01/29 12:14:40;;;;;;;15.13;6.45;;;;;;;;;;5006832;28;20033;-58
2024/01/29 12:17:09;;;;;;;10.38;5.85;;;;;;;;;;5007022;28;20131;-54
2024/01/29 12:19:35;;;;;;;13.60;6.65;;;;;;;;;;5008815;28;20034;-55
2024/01/29 12:22:01;;;;;;;13.20;8.00;;;;;;;;;;5005797;28;20030;-56
2024/01/29 12:24:27;;;;;;;11.98;5.88;;;;;;;;;;5008483;28;20034;-57
2024/01/29 12:26:53;;;;;;;11.25;6.20;;;;;;;;;;5009397;28;20137;-57
2024/01/29 12:29:20;;;;;;;12.82;6.30;;;;;;;;;;5004695;28;20033;-59
2024/01/29 12:31:46;;;;;;;15.07;6.38;;;;;;;;;;5002139;28;20040;-58
2024/01/29 12:34:19;;;;;;;13.45;5.75;;;;;;;;;;5003950;28;20025;-58
2024/01/29 12:36:50;;;;;;;13.05;5.95;;;;;;;;;;5006611;28;20033;-57
2024/01/29 12:39:16;;;;;;;12.57;5.53;;;;;;;;;;5006800;28;20029;-54
2024/01/29 12:41:42;;;;;;;13.68;6.07;;;;;;;;;;5008449;28;20153;-56
2024/01/29 12:44:09;;;;;;;10.00;5.97;;;;;;;;;;5007157;28;20041;-57
2024/01/29 12:46:35;;;;;;;13.60;5.70;;;;;;;;;;5006587;28;20030;-54
2024/01/29 12:49:02;;;;;;;15.77;5.78;;;;;;;;;;5007438;28;20030;-54
2024/01/29 12:51:28;;;;;;;9.77;5.50;;;;;;;;;;5007060;28;20109;-57
2024/01/29 12:53:56;;;;;;;10.70;5.80;;;;;;;;;;5007429;28;20022;-57
2024/01/29 12:56:23;;;;;;;10.57;5.30;;;;;;;;;;5008047;28;20014;-56
2024/01/29 12:58:49;;;;;;;10.05;5.60;;;;;;;;;;5005608;28;20500;-56
2024/01/29 13:01:15;;;;;;;12.00;5.25;;;;;;;;;;5005759;28;20060;-58
2024/01/29 13:03:41;;;;;;;11.00;5.82;;;;;;;;;;5009043;28;20026;-60
2024/01/29 13:06:07;;;;;;;13.80;6.32;;;;;;;;;;5008439;28;20639;-53
2024/01/29 13:08:33;;;;;;;14.93;5.80;;;;;;;;;;5007748;28;20038;-54
2024/01/29 13:10:59;;;;;;;12.07;5.47;;;;;;;;;;5006886;28;20069;-54
2024/01/29 13:13:25;;;;;;;13.95;5.43;;;;;;;;;;5007266;28;20037;-55
2024/01/29 13:15:51;;;;;;;12.82;5.57;;;;;;;;;;5005201;28;20028;-57
2024/01/29 13:18:17;;;;;;;12.38;5.50;;;;;;;;;;5009008;28;20037;-52
2024/01/29 13:20:44;;;;;;;8.82;5.40;;;;;;;;;;5005231;28;20080;-57
2024/01/29 13:23:09;;;;;;;13.55;5.30;;;;;;;;;;5004599;28;20022;-56
2024/01/29 13:25:36;;;;;;;9.40;4.88;;;;;;;;;;5006666;28;20030;-55
2024/01/29 13:28:04;;;;;;;12.80;5.10;;;;;;;;;;5004486;28;20033;-57
2024/01/29 13:30:30;;;;;;;10.48;5.70;;;;;;;;;;5011316;28;20033;-57
2024/01/29 13:32:56;;;;;;;13.77;6.10;;;;;;;;;;5024710;28;20029;-54
2024/01/29 13:35:22;;;;;;;11.15;5.88;;;;;;;;;;5010568;28;20370;-57
2024/01/29 13:37:48;;;;;;;12.88;5.75;;;;;;;;;;5009816;28;20030;-56
2024/01/29 13:40:14;;;;;;;11.00;5.88;;;;;;;;;;5011200;28;20034;-56
2024/01/29 13:42:40;;;;;;;11.05;5.97;;;;;;;;;;5015818;28;20443;-57
2024/01/29 13:45:07;;;;;;;11.50;5.93;;;;;;;;;;5012067;28;20080;-56
2024/01/29 13:47:33;;;;;;;10.18;5.35;;;;;;;;;;5011567;28;20033;-53
2024/01/29 13:50:03;;;;;;;8.60;5.47;;;;;;;;;;5010316;28;20657;-54
2024/01/29 13:52:29;;;;;;;16.52;6.72;;;;;;;;;;5008918;28;20055;-54
2024/01/29 13:54:56;;;;;;;13.02;5.40;;;;;;;;;;5010352;28;20026;-56
2024/01/29 13:57:22;;;;;;;12.45;5.90;;;;;;;;;;5012768;28;20030;-56
2024/01/29 13:59:49;;;;;;;10.80;6.30;;;;;;;;;;5011411;28;20088;-56
2024/01/29 14:02:15;;;;;;;8.43;5.53;;;;;;;;;;5010937;28;20404;-57
2024/01/29 14:04:41;;;;;;;15.00;6.07;;;;;;;;;;5010893;28;20026;-57
2024/01/29 14:07:07;;;;;;;16.13;5.90;;;;;;;;;;5012311;28;20112;-60
2024/01/29 14:09:33;;;;;;;12.48;6.07;;;;;;;;;;5009539;28;20117;-58
2024/01/29 14:11:58;;;;;;;17.67;6.00;;;;;;;;;;5010242;28;20571;-58
2024/01/29 14:14:25;;;;;;;10.82;5.28;;;;;;;;;;5010303;28;20036;-57
2024/01/29 14:16:51;;;;;;;11.65;6.10;;;;;;;;;;5009122;28;20025;-57
2024/01/29 14:19:17;;;;;;;10.98;5.82;;;;;;;;;;5011647;28;20509;-59
2024/01/29 14:21:43;;;;;;;13.77;6.03;;;;;;;;;;5009288;28;20041;-56
2024/01/29 14:24:09;;;;;;;7.93;5.93;;;;;;;;;;5008795;28;20060;-55
2024/01/29 14:26:37;;;;;;;14.15;5.88;;;;;;;;;;5024101;28;20033;-55
2024/01/29 14:29:04;;;;;;;8.52;5.10;;;;;;;;;;5009577;28;20047;-55
2024/01/29 14:31:30;;;;;;;12.18;5.63;;;;;;;;;;5010416;28;20083;-57